Warnow Sun — 9HA4159 — position and weather

sailwx.info

Track history (hours):
 
Tides and Currents Weather Stations Pressure Air Temp Water Temp Dewpoint Dewpoint Depression Visibility Wind Speed Wind Dir Waves Ship Positions

Warnow Sun

Last reported at 2018-Feb-18 06:29 UTC. Time now 2018-Feb-18 06:59 UTC.
Position N 59°54' E 030°13'.

Length 180 m; draft 7.1 m.

Type: Ship. MMSI: 249225000.

Date/timePositionNaut miles runAvg speedWind from/ knotsBaromVisibWave heightAir tempDewpointWater temp
2018-Feb-18 06:29N 59°54' E 030°13'0 0.0
2018-Feb-18 05:59N 59°54' E 030°13'0 0.0
2018-Feb-18 05:29N 59°54' E 030°13'0 0.0
2018-Feb-18 04:59N 59°54' E 030°13'0 0.0
2018-Feb-18 04:29N 59°54' E 030°13'0 0.0
2018-Feb-18 03:56N 59°54' E 030°13'0 0.0
2018-Feb-18 03:29N 59°54' E 030°13'0 0.0
2018-Feb-18 02:59N 59°54' E 030°13'0 0.0
2018-Feb-18 02:29N 59°54' E 030°13'0 0.0
2018-Feb-18 01:59N 59°54' E 030°13'0 0.0
2018-Feb-18 01:29N 59°54' E 030°13'0 0.0
2018-Feb-18 00:59N 59°54' E 030°13'0 0.0
2018-Feb-18 00:29N 59°54' E 030°13'0 0.0
2018-Feb-17 23:59N 59°54' E 030°13'0 0.0
2018-Feb-17 23:29N 59°54' E 030°13'0 0.0
2018-Feb-17 22:59N 59°54' E 030°13'0 0.0
2018-Feb-17 22:29N 59°54' E 030°13'0 0.0
2018-Feb-17 21:59N 59°54' E 030°13'0 0.0
2018-Feb-17 21:29N 59°54' E 030°13'0 0.0
2018-Feb-17 20:59N 59°54' E 030°13'0 0.0
2018-Feb-17 20:29N 59°54' E 030°13'0 0.0
2018-Feb-17 19:56N 59°54' E 030°13'0 0.0
2018-Feb-17 19:29N 59°54' E 030°13'0 0.0
2018-Feb-17 18:59N 59°54' E 030°13'0 0.0
2018-Feb-17 18:29N 59°54' E 030°13'0 0.0
2018-Feb-17 17:59N 59°54' E 030°13'0 0.0
2018-Feb-17 17:29N 59°54' E 030°13'0 0.0
2018-Feb-17 16:59N 59°54' E 030°13'0 0.0
2018-Feb-17 16:29N 59°54' E 030°13'0 0.0
2018-Feb-17 15:59N 59°54' E 030°13'0 0.0
2018-Feb-17 15:29N 59°54' E 030°13'0 0.0
2018-Feb-17 14:59N 59°54' E 030°13'0 0.0
2018-Feb-17 14:29N 59°54' E 030°13'0 0.0
2018-Feb-17 13:59N 59°54' E 030°13'0 0.0
2018-Feb-17 13:29N 59°54' E 030°13'0 0.0
2018-Feb-17 12:59N 59°54' E 030°13'0 0.0
2018-Feb-17 12:29N 59°54' E 030°13'0 0.0
2018-Feb-17 11:59N 59°54' E 030°13'0 0.0
2018-Feb-17 11:29N 59°54' E 030°13'0 0.0
2018-Feb-17 10:59N 59°54' E 030°13'0 0.0
2018-Feb-17 10:26N 59°54' E 030°13'0 0.0
2018-Feb-17 09:59N 59°54' E 030°13'0 0.0
2018-Feb-17 09:29N 59°54' E 030°13'0 0.0
2018-Feb-17 08:59N 59°54' E 030°13'0 0.0
2018-Feb-17 08:29N 59°54' E 030°13'0 0.0
2018-Feb-17 07:56N 59°54' E 030°13'0 0.0
2018-Feb-17 07:26N 59°54' E 030°13'0 0.0
2018-Feb-17 06:59N 59°54' E 030°13'0 0.0
2018-Feb-17 06:29N 59°54' E 030°13'0 0.0
2018-Feb-17 05:59N 59°54' E 030°13'0 0.0
2018-Feb-17 05:29N 59°54' E 030°13'0 0.0
2018-Feb-17 04:56N 59°54' E 030°13'0 0.0
2018-Feb-17 04:29N 59°54' E 030°13'0 0.0
2018-Feb-17 03:59N 59°54' E 030°13'0 0.4
2018-Feb-17 03:30N 59°53' E 030°13'1 1.3
2018-Feb-17 03:00N 59°53' E 030°12'3 5.0
2018-Feb-17 02:30N 59°54' E 030°07'5 9.3
2018-Feb-17 02:00N 59°56' E 029°58'510.4
2018-Feb-17 01:30N 59°58' E 029°49'510.5
2018-Feb-17 00:59N 59°60' E 029°39'5 9.6
2018-Feb-17 00:26N 60°01' E 029°29'3 5.0
2018-Feb-16 23:51N 60°02' E 029°23'2 4.8
2018-Feb-16 23:30N 60°02' E 029°20'0 0.1
2018-Feb-16 22:49N 60°02' E 029°20'1 1.8
2018-Feb-16 22:28N 60°02' E 029°18'2 3.9
2018-Feb-16 21:58N 60°02' E 029°14'3 5.9
2018-Feb-16 21:30N 60°02' E 029°09'4 6.3
2018-Feb-16 20:54N 60°02' E 029°01'3 5.6
2018-Feb-16 20:27N 60°02' E 028°56'3 5.7
2018-Feb-16 20:00N 60°02' E 028°51'3 6.7
2018-Feb-16 19:30N 60°02' E 028°45'3 6.2
2018-Feb-16 19:00N 60°02' E 028°38'3 5.8
2018-Feb-16 18:31N 60°02' E 028°33'3 5.5
2018-Feb-16 18:00N 60°03' E 028°27'3 6.0
2018-Feb-16 17:30N 60°04' E 028°22'4 8.9
2018-Feb-16 17:00N 60°07' E 028°15'4 7.8
2018-Feb-16 16:31N 60°08' E 028°08'4 7.5
2018-Feb-16 16:00N 60°09' E 028°00'4 7.0
2018-Feb-16 15:30N 60°10' E 027°54'4 7.6
2018-Feb-16 15:00N 60°10' E 027°46'4 7.3
2018-Feb-16 14:30N 60°09' E 027°40'3 6.4
2018-Feb-16 14:00N 60°07' E 027°34'3 6.9
2018-Feb-16 13:30N 60°05' E 027°28'3 6.0
2018-Feb-16 13:00N 60°04' E 027°23'4 7.2
2018-Feb-16 12:29N 60°02' E 027°16'3 6.9
2018-Feb-16 11:59N 60°00' E 027°11'611.6
2018-Feb-16 11:29N 59°58' E 026°59'611.2
2018-Feb-16 10:59N 59°59' E 026°48'714.3
2018-Feb-16 10:29N 59°59' E 026°34'713.8
2018-Feb-16 09:59N 59°57' E 026°21'1713.4
2018-Feb-16 08:45N 59°52' E 025°49'313.7
2018-Feb-16 08:30N 59°51' E 025°43'713.8
2018-Feb-16 08:00N 59°50' E 025°29'714.0
2018-Feb-16 07:30N 59°49' E 025°16'915.9
2018-Feb-16 06:57N 59°47' E 024°59'511.5
2018-Feb-16 06:30N 59°46' E 024°49'714.2
2018-Feb-16 06:00N 59°45' E 024°35'713.2
2018-Feb-16 05:30N 59°43' E 024°22'713.9
2018-Feb-16 05:00N 59°41' E 024°09'714.3
2018-Feb-16 04:30N 59°38' E 023°56'713.8
2018-Feb-16 04:00N 59°36' E 023°43'714.1
2018-Feb-16 03:31N 59°34' E 023°30'713.7
2018-Feb-16 03:01N 59°32' E 023°17'913.9
2018-Feb-16 02:23N 59°29' E 023°01'27313.7
2018-Feb-15 06:24N 56°11' E 017°07'613.9
2018-Feb-15 06:01N 56°08' E 016°59'713.9
2018-Feb-15 05:31N 56°04' E 016°49'714.1
2018-Feb-15 05:00N 55°60' E 016°39'714.7
2018-Feb-15 04:31N 55°56' E 016°28'714.6
2018-Feb-15 04:01N 55°53' E 016°16'714.5
2018-Feb-15 03:31N 55°49' E 016°05'714.7
2018-Feb-15 03:00N 55°46' E 015°54'714.7
2018-Feb-15 02:30N 55°42' E 015°43'714.4
2018-Feb-15 02:01N 55°39' E 015°31'714.7
2018-Feb-15 01:31N 55°36' E 015°19'714.7
2018-Feb-15 01:01N 55°32' E 015°08'814.8
2018-Feb-15 00:26N 55°28' E 014°55'714.6
2018-Feb-14 23:59N 55°24' E 014°45'814.3
2018-Feb-14 23:26N 55°20' E 014°34'614.6
2018-Feb-14 23:00N 55°15' E 014°27'714.5
2018-Feb-14 22:31N 55°09' E 014°19'714.5
2018-Feb-14 22:01N 55°04' E 014°11'813.7
2018-Feb-14 21:24N 54°60' E 013°58'614.1
2018-Feb-14 21:00N 54°58' E 013°49'2014.3
2018-Feb-14 19:38N 54°51' E 013°17'714.0
2018-Feb-14 19:09N 54°48' E 013°06'914.1
2018-Feb-14 18:32N 54°46' E 012°51'314.0
2018-Feb-14 18:20N 54°45' E 012°47'1114.2
2018-Feb-14 17:32N 54°39' E 012°30'014.5
2018-Feb-14 17:31N 54°39' E 012°30'814.3
2018-Feb-14 16:55N 54°33' E 012°19'614.5
2018-Feb-14 16:30N 54°28' E 012°14'713.3
2018-Feb-14 16:00N 54°24' E 012°05'814.6
2018-Feb-14 15:30N 54°24' E 011°52'714.1
2018-Feb-14 15:00N 54°26' E 011°40'714.6
2018-Feb-14 14:31N 54°30' E 011°29'714.3
2018-Feb-14 14:01N 54°33' E 011°18'714.0
2018-Feb-14 13:30N 54°36' E 011°07'714.1
2018-Feb-14 13:00N 54°40' E 010°57'612.2
2018-Feb-14 12:30N 54°45' E 010°52'613.1
2018-Feb-14 12:01N 54°52' E 010°52'713.1
2018-Feb-14 11:30N 54°58' E 010°58'713.4
2018-Feb-14 11:00N 55°04' E 011°02'713.6
2018-Feb-14 10:30N 55°11' E 011°04'612.6
2018-Feb-14 10:01N 55°17' E 011°04'713.7
2018-Feb-14 09:30N 55°23' E 011°00'2713.2
2018-Feb-14 07:29N 55°49' E 010°48'7413.2
2018-Feb-14 01:55N 56°56' E 011°45'614.1
2018-Feb-14 01:30N 57°02' E 011°42'714.4
2018-Feb-14 01:00N 57°08' E 011°38'613.0
2018-Feb-14 00:30N 57°14' E 011°34'713.5
2018-Feb-14 00:00N 57°21' E 011°29'713.9
2018-Feb-13 23:31N 57°27' E 011°25'713.6
2018-Feb-13 23:00N 57°32' E 011°16'713.4
2018-Feb-13 22:30N 57°37' E 011°07'713.1
2018-Feb-13 22:00N 57°41' E 010°58'612.0
2018-Feb-13 21:30N 57°46' E 010°53'510.9
2018-Feb-13 21:00N 57°48' E 010°43'816.1
2018-Feb-13 20:30N 57°47' E 010°28'30614.2
2018-Feb-12 22:59N 53°45' E 004°56'713.9
2018-Feb-12 22:29N 53°38' E 004°51'713.8
2018-Feb-12 21:59N 53°32' E 004°47'713.6
2018-Feb-12 21:29N 53°25' E 004°43'613.5
2018-Feb-12 21:00N 53°19' E 004°39'1313.4
2018-Feb-12 20:02N 53°08' E 004°28'213.5
2018-Feb-12 19:52N 53°06' E 004°26'1513.6
2018-Feb-12 18:44N 52°52' E 004°15'2713.9
2018-Feb-12 16:46N 52°32' E 003°45'1414.5
2018-Feb-12 15:48N 52°21' E 003°29'5615.2
2018-Feb-12 12:08N 51°41' E 002°27'215.6
2018-Feb-12 12:00N 51°39' E 002°25'815.9
2018-Feb-12 11:30N 51°33' E 002°17'815.9
2018-Feb-12 11:01N 51°27' E 002°09'714.9
2018-Feb-12 10:30N 51°20' E 002°06'714.5
2018-Feb-12 10:00N 51°13' E 002°02'815.9
2018-Feb-12 09:30N 51°10' E 001°50'815.4
2018-Feb-12 09:01N 51°05' E 001°41'815.2
2018-Feb-12 08:30N 50°59' E 001°32'714.3
2018-Feb-12 08:00N 50°53' E 001°26'713.9
2018-Feb-12 07:29N 50°46' E 001°23'713.5
2018-Feb-12 07:00N 50°41' E 001°18'1314.4
2018-Feb-12 06:08N 50°33' E 001°03'614.8
2018-Feb-12 05:46N 50°30' E 000°55'415.1
2018-Feb-12 05:30N 50°28' E 000°49'915.0
2018-Feb-12 04:53N 50°25' E 000°36'614.9
2018-Feb-12 04:30N 50°24' E 000°27'714.8
2018-Feb-12 04:00N 50°22' E 000°16'714.6
2018-Feb-12 03:31N 50°20' E 000°05'714.3
2018-Feb-12 03:00N 50°18' W 000°06'714.1
2018-Feb-12 02:30N 50°15' W 000°16'3013.3
2018-Feb-12 00:15N 50°06' W 001°01'312.7
2018-Feb-12 00:00N 50°06' W 001°06'812.7
2018-Feb-11 23:23N 50°04' W 001°18'512.5
2018-Feb-11 23:00N 50°03' W 001°25'612.6
2018-Feb-11 22:31N 50°01' W 001°34'612.7
2018-Feb-11 22:01N 49°60' W 001°44'713.0
2018-Feb-11 21:30N 49°58' W 001°54'713.4
2018-Feb-11 21:01N 49°57' W 002°04'714.1
2018-Feb-11 20:30N 49°55' W 002°15'714.5
2018-Feb-11 20:00N 49°54' W 002°25'814.7
2018-Feb-11 19:30N 49°52' W 002°37'714.9
2018-Feb-11 19:01N 49°50' W 002°48'814.9
2018-Feb-11 18:27N 49°47' W 002°60'815.1
2018-Feb-11 17:57N 49°45' W 003°11'715.1
2018-Feb-11 17:30N 49°43' W 003°21'  
Track history (hours):
 
Tides and Currents Weather Stations Pressure Air Temp Water Temp Dewpoint Dewpoint Depression Visibility Wind Speed Wind Dir Waves Ship Positions

Warnow Sun

Last reported at 2018-Feb-18 06:29 UTC. Time now 2018-Feb-18 06:59 UTC.
Position N 59°54' E 030°13'.

Length 180 m; draft 7.1 m.

Type: Ship. MMSI: 249225000.

Date/timePositionNaut miles runAvg speedWind from/ knotsBaromVisibWave heightAir tempDewpointWater temp
2018-Feb-18 06:29N 59°54' E 030°13'0 0.0
2018-Feb-18 05:59N 59°54' E 030°13'0 0.0
2018-Feb-18 05:29N 59°54' E 030°13'0 0.0
2018-Feb-18 04:59N 59°54' E 030°13'0 0.0
2018-Feb-18 04:29N 59°54' E 030°13'0 0.0
2018-Feb-18 03:56N 59°54' E 030°13'0 0.0
2018-Feb-18 03:29N 59°54' E 030°13'0 0.0
2018-Feb-18 02:59N 59°54' E 030°13'0 0.0
2018-Feb-18 02:29N 59°54' E 030°13'0 0.0
2018-Feb-18 01:59N 59°54' E 030°13'0 0.0
2018-Feb-18 01:29N 59°54' E 030°13'0 0.0
2018-Feb-18 00:59N 59°54' E 030°13'0 0.0
2018-Feb-18 00:29N 59°54' E 030°13'0 0.0
2018-Feb-17 23:59N 59°54' E 030°13'0 0.0
2018-Feb-17 23:29N 59°54' E 030°13'0 0.0
2018-Feb-17 22:59N 59°54' E 030°13'0 0.0
2018-Feb-17 22:29N 59°54' E 030°13'0 0.0
2018-Feb-17 21:59N 59°54' E 030°13'0 0.0
2018-Feb-17 21:29N 59°54' E 030°13'0 0.0
2018-Feb-17 20:59N 59°54' E 030°13'0 0.0
2018-Feb-17 20:29N 59°54' E 030°13'0 0.0
2018-Feb-17 19:56N 59°54' E 030°13'0 0.0
2018-Feb-17 19:29N 59°54' E 030°13'0 0.0
2018-Feb-17 18:59N 59°54' E 030°13'0 0.0
2018-Feb-17 18:29N 59°54' E 030°13'0 0.0
2018-Feb-17 17:59N 59°54' E 030°13'0 0.0
2018-Feb-17 17:29N 59°54' E 030°13'0 0.0
2018-Feb-17 16:59N 59°54' E 030°13'0 0.0
2018-Feb-17 16:29N 59°54' E 030°13'0 0.0
2018-Feb-17 15:59N 59°54' E 030°13'0 0.0
2018-Feb-17 15:29N 59°54' E 030°13'0 0.0
2018-Feb-17 14:59N 59°54' E 030°13'0 0.0
2018-Feb-17 14:29N 59°54' E 030°13'0 0.0
2018-Feb-17 13:59N 59°54' E 030°13'0 0.0
2018-Feb-17 13:29N 59°54' E 030°13'0 0.0
2018-Feb-17 12:59N 59°54' E 030°13'0 0.0
2018-Feb-17 12:29N 59°54' E 030°13'0 0.0
2018-Feb-17 11:59N 59°54' E 030°13'0 0.0
2018-Feb-17 11:29N 59°54' E 030°13'0 0.0
2018-Feb-17 10:59N 59°54' E 030°13'0 0.0
2018-Feb-17 10:26N 59°54' E 030°13'0 0.0
2018-Feb-17 09:59N 59°54' E 030°13'0 0.0
2018-Feb-17 09:29N 59°54' E 030°13'0 0.0
2018-Feb-17 08:59N 59°54' E 030°13'0 0.0
2018-Feb-17 08:29N 59°54' E 030°13'0 0.0
2018-Feb-17 07:56N 59°54' E 030°13'0 0.0
2018-Feb-17 07:26N 59°54' E 030°13'0 0.0
2018-Feb-17 06:59N 59°54' E 030°13'0 0.0
2018-Feb-17 06:29N 59°54' E 030°13'0 0.0
2018-Feb-17 05:59N 59°54' E 030°13'0 0.0
2018-Feb-17 05:29N 59°54' E 030°13'0 0.0
2018-Feb-17 04:56N 59°54' E 030°13'0 0.0
2018-Feb-17 04:29N 59°54' E 030°13'0 0.0
2018-Feb-17 03:59N 59°54' E 030°13'0 0.4
2018-Feb-17 03:30N 59°53' E 030°13'1 1.3
2018-Feb-17 03:00N 59°53' E 030°12'3 5.0
2018-Feb-17 02:30N 59°54' E 030°07'5 9.3
2018-Feb-17 02:00N 59°56' E 029°58'510.4
2018-Feb-17 01:30N 59°58' E 029°49'510.5
2018-Feb-17 00:59N 59°60' E 029°39'5 9.6
2018-Feb-17 00:26N 60°01' E 029°29'3 5.0
2018-Feb-16 23:51N 60°02' E 029°23'2 4.8
2018-Feb-16 23:30N 60°02' E 029°20'0 0.1
2018-Feb-16 22:49N 60°02' E 029°20'1 1.8
2018-Feb-16 22:28N 60°02' E 029°18'2 3.9
2018-Feb-16 21:58N 60°02' E 029°14'3 5.9
2018-Feb-16 21:30N 60°02' E 029°09'4 6.3
2018-Feb-16 20:54N 60°02' E 029°01'3 5.6
2018-Feb-16 20:27N 60°02' E 028°56'3 5.7
2018-Feb-16 20:00N 60°02' E 028°51'3 6.7
2018-Feb-16 19:30N 60°02' E 028°45'3 6.2
2018-Feb-16 19:00N 60°02' E 028°38'3 5.8
2018-Feb-16 18:31N 60°02' E 028°33'3 5.5
2018-Feb-16 18:00N 60°03' E 028°27'3 6.0
2018-Feb-16 17:30N 60°04' E 028°22'4 8.9
2018-Feb-16 17:00N 60°07' E 028°15'4 7.8
2018-Feb-16 16:31N 60°08' E 028°08'4 7.5
2018-Feb-16 16:00N 60°09' E 028°00'4 7.0
2018-Feb-16 15:30N 60°10' E 027°54'4 7.6
2018-Feb-16 15:00N 60°10' E 027°46'4 7.3
2018-Feb-16 14:30N 60°09' E 027°40'3 6.4
2018-Feb-16 14:00N 60°07' E 027°34'3 6.9
2018-Feb-16 13:30N 60°05' E 027°28'3 6.0
2018-Feb-16 13:00N 60°04' E 027°23'4 7.2
2018-Feb-16 12:29N 60°02' E 027°16'3 6.9
2018-Feb-16 11:59N 60°00' E 027°11'611.6
2018-Feb-16 11:29N 59°58' E 026°59'611.2
2018-Feb-16 10:59N 59°59' E 026°48'714.3
2018-Feb-16 10:29N 59°59' E 026°34'713.8
2018-Feb-16 09:59N 59°57' E 026°21'1713.4
2018-Feb-16 08:45N 59°52' E 025°49'313.7
2018-Feb-16 08:30N 59°51' E 025°43'713.8
2018-Feb-16 08:00N 59°50' E 025°29'714.0
2018-Feb-16 07:30N 59°49' E 025°16'915.9
2018-Feb-16 06:57N 59°47' E 024°59'511.5
2018-Feb-16 06:30N 59°46' E 024°49'714.2
2018-Feb-16 06:00N 59°45' E 024°35'713.2
2018-Feb-16 05:30N 59°43' E 024°22'713.9
2018-Feb-16 05:00N 59°41' E 024°09'714.3
2018-Feb-16 04:30N 59°38' E 023°56'713.8
2018-Feb-16 04:00N 59°36' E 023°43'714.1
2018-Feb-16 03:31N 59°34' E 023°30'713.7
2018-Feb-16 03:01N 59°32' E 023°17'913.9
2018-Feb-16 02:23N 59°29' E 023°01'27313.7
2018-Feb-15 06:24N 56°11' E 017°07'613.9
2018-Feb-15 06:01N 56°08' E 016°59'713.9
2018-Feb-15 05:31N 56°04' E 016°49'714.1
2018-Feb-15 05:00N 55°60' E 016°39'714.7
2018-Feb-15 04:31N 55°56' E 016°28'714.6
2018-Feb-15 04:01N 55°53' E 016°16'714.5
2018-Feb-15 03:31N 55°49' E 016°05'714.7
2018-Feb-15 03:00N 55°46' E 015°54'714.7
2018-Feb-15 02:30N 55°42' E 015°43'714.4
2018-Feb-15 02:01N 55°39' E 015°31'714.7
2018-Feb-15 01:31N 55°36' E 015°19'714.7
2018-Feb-15 01:01N 55°32' E 015°08'814.8
2018-Feb-15 00:26N 55°28' E 014°55'714.6
2018-Feb-14 23:59N 55°24' E 014°45'814.3
2018-Feb-14 23:26N 55°20' E 014°34'614.6
2018-Feb-14 23:00N 55°15' E 014°27'714.5
2018-Feb-14 22:31N 55°09' E 014°19'714.5
2018-Feb-14 22:01N 55°04' E 014°11'813.7
2018-Feb-14 21:24N 54°60' E 013°58'614.1
2018-Feb-14 21:00N 54°58' E 013°49'2014.3
2018-Feb-14 19:38N 54°51' E 013°17'714.0
2018-Feb-14 19:09N 54°48' E 013°06'914.1
2018-Feb-14 18:32N 54°46' E 012°51'314.0
2018-Feb-14 18:20N 54°45' E 012°47'1114.2
2018-Feb-14 17:32N 54°39' E 012°30'014.5
2018-Feb-14 17:31N 54°39' E 012°30'814.3
2018-Feb-14 16:55N 54°33' E 012°19'614.5
2018-Feb-14 16:30N 54°28' E 012°14'713.3
2018-Feb-14 16:00N 54°24' E 012°05'814.6
2018-Feb-14 15:30N 54°24' E 011°52'714.1
2018-Feb-14 15:00N 54°26' E 011°40'714.6
2018-Feb-14 14:31N 54°30' E 011°29'714.3
2018-Feb-14 14:01N 54°33' E 011°18'714.0
2018-Feb-14 13:30N 54°36' E 011°07'714.1
2018-Feb-14 13:00N 54°40' E 010°57'612.2
2018-Feb-14 12:30N 54°45' E 010°52'613.1
2018-Feb-14 12:01N 54°52' E 010°52'713.1
2018-Feb-14 11:30N 54°58' E 010°58'713.4
2018-Feb-14 11:00N 55°04' E 011°02'713.6
2018-Feb-14 10:30N 55°11' E 011°04'612.6
2018-Feb-14 10:01N 55°17' E 011°04'713.7
2018-Feb-14 09:30N 55°23' E 011°00'2713.2
2018-Feb-14 07:29N 55°49' E 010°48'7413.2
2018-Feb-14 01:55N 56°56' E 011°45'614.1
2018-Feb-14 01:30N 57°02' E 011°42'714.4
2018-Feb-14 01:00N 57°08' E 011°38'613.0
2018-Feb-14 00:30N 57°14' E 011°34'713.5
2018-Feb-14 00:00N 57°21' E 011°29'713.9
2018-Feb-13 23:31N 57°27' E 011°25'713.6
2018-Feb-13 23:00N 57°32' E 011°16'713.4
2018-Feb-13 22:30N 57°37' E 011°07'713.1
2018-Feb-13 22:00N 57°41' E 010°58'612.0
2018-Feb-13 21:30N 57°46' E 010°53'510.9
2018-Feb-13 21:00N 57°48' E 010°43'816.1
2018-Feb-13 20:30N 57°47' E 010°28'30614.2
2018-Feb-12 22:59N 53°45' E 004°56'713.9
2018-Feb-12 22:29N 53°38' E 004°51'713.8
2018-Feb-12 21:59N 53°32' E 004°47'713.6
2018-Feb-12 21:29N 53°25' E 004°43'613.5
2018-Feb-12 21:00N 53°19' E 004°39'1313.4
2018-Feb-12 20:02N 53°08' E 004°28'213.5
2018-Feb-12 19:52N 53°06' E 004°26'1513.6
2018-Feb-12 18:44N 52°52' E 004°15'2713.9
2018-Feb-12 16:46N 52°32' E 003°45'1414.5
2018-Feb-12 15:48N 52°21' E 003°29'5615.2
2018-Feb-12 12:08N 51°41' E 002°27'215.6
2018-Feb-12 12:00N 51°39' E 002°25'815.9
2018-Feb-12 11:30N 51°33' E 002°17'815.9
2018-Feb-12 11:01N 51°27' E 002°09'714.9
2018-Feb-12 10:30N 51°20' E 002°06'714.5
2018-Feb-12 10:00N 51°13' E 002°02'815.9
2018-Feb-12 09:30N 51°10' E 001°50'815.4
2018-Feb-12 09:01N 51°05' E 001°41'815.2
2018-Feb-12 08:30N 50°59' E 001°32'714.3
2018-Feb-12 08:00N 50°53' E 001°26'713.9
2018-Feb-12 07:29N 50°46' E 001°23'713.5
2018-Feb-12 07:00N 50°41' E 001°18'1314.4
2018-Feb-12 06:08N 50°33' E 001°03'614.8
2018-Feb-12 05:46N 50°30' E 000°55'415.1
2018-Feb-12 05:30N 50°28' E 000°49'915.0
2018-Feb-12 04:53N 50°25' E 000°36'614.9
2018-Feb-12 04:30N 50°24' E 000°27'714.8
2018-Feb-12 04:00N 50°22' E 000°16'714.6
2018-Feb-12 03:31N 50°20' E 000°05'714.3
2018-Feb-12 03:00N 50°18' W 000°06'714.1
2018-Feb-12 02:30N 50°15' W 000°16'3013.3
2018-Feb-12 00:15N 50°06' W 001°01'312.7
2018-Feb-12 00:00N 50°06' W 001°06'812.7
2018-Feb-11 23:23N 50°04' W 001°18'512.5
2018-Feb-11 23:00N 50°03' W 001°25'612.6
2018-Feb-11 22:31N 50°01' W 001°34'612.7
2018-Feb-11 22:01N 49°60' W 001°44'713.0
2018-Feb-11 21:30N 49°58' W 001°54'713.4
2018-Feb-11 21:01N 49°57' W 002°04'714.1
2018-Feb-11 20:30N 49°55' W 002°15'714.5
2018-Feb-11 20:00N 49°54' W 002°25'814.7
2018-Feb-11 19:30N 49°52' W 002°37'714.9
2018-Feb-11 19:01N 49°50' W 002°48'814.9
2018-Feb-11 18:27N 49°47' W 002°60'815.1
2018-Feb-11 17:57N 49°45' W 003°11'715.1
2018-Feb-11 17:30N 49°43' W 003°21'  

Dump ship's entire track history